sensor_id;sensor_type;location;lat;lon;timestamp;temperature;humidity
2995;DHT22;35277;49.890;8.222;2023-03-05T00:02:26;21.90;59.20
2995;DHT22;35277;49.890;8.222;2023-03-05T00:04:54;21.90;59.20
2995;DHT22;35277;49.890;8.222;2023-03-05T00:07:22;21.90;59.20
2995;DHT22;35277;49.890;8.222;2023-03-05T00:09:50;21.90;59.20
2995;DHT22;35277;49.890;8.222;2023-03-05T00:12:17;21.90;59.20
2995;DHT22;35277;49.890;8.222;2023-03-05T00:14:45;21.90;59.20
2995;DHT22;35277;49.890;8.222;2023-03-05T00:17:13;21.90;59.20
2995;DHT22;35277;49.890;8.222;2023-03-05T00:19:42;21.90;59.20
2995;DHT22;35277;49.890;8.222;2023-03-05T00:22:09;21.90;59.20
2995;DHT22;35277;49.890;8.222;2023-03-05T00:24:37;21.90;59.20
2995;DHT22;35277;49.890;8.222;2023-03-05T00:27:05;21.90;59.20
2995;DHT22;35277;49.890;8.222;2023-03-05T00:29:33;21.90;59.20
2995;DHT22;35277;49.890;8.222;2023-03-05T00:32:00;21.90;59.20
2995;DHT22;35277;49.890;8.222;2023-03-05T00:34:28;21.90;59.20
2995;DHT22;35277;49.890;8.222;2023-03-05T00:36:58;21.90;59.20
2995;DHT22;35277;49.890;8.222;2023-03-05T00:39:26;21.90;59.20
2995;DHT22;35277;49.890;8.222;2023-03-05T00:41:56;21.90;59.20
2995;DHT22;35277;49.890;8.222;2023-03-05T00:44:23;21.90;59.20
2995;DHT22;35277;49.890;8.222;2023-03-05T00:46:51;21.90;59.20
2995;DHT22;35277;49.890;8.222;2023-03-05T00:49:19;21.90;59.30
2995;DHT22;35277;49.890;8.222;2023-03-05T00:51:47;21.90;59.30
2995;DHT22;35277;49.890;8.222;2023-03-05T00:54:16;21.90;59.30
2995;DHT22;35277;49.890;8.222;2023-03-05T00:56:44;21.90;59.30
2995;DHT22;35277;49.890;8.222;2023-03-05T00:59:12;21.90;59.30
2995;DHT22;35277;49.890;8.222;2023-03-05T01:01:40;21.90;59.30
2995;DHT22;35277;49.890;8.222;2023-03-05T01:04:08;21.90;59.30
2995;DHT22;35277;49.890;8.222;2023-03-05T01:06:36;21.90;59.30
2995;DHT22;35277;49.890;8.222;2023-03-05T01:09:08;21.90;59.30
2995;DHT22;35277;49.890;8.222;2023-03-05T01:11:37;21.90;59.30
2995;DHT22;35277;49.890;8.222;2023-03-05T01:14:04;21.90;59.30
2995;DHT22;35277;49.890;8.222;2023-03-05T01:16:32;21.90;59.30
2995;DHT22;35277;49.890;8.222;2023-03-05T01:19:00;21.90;59.30
2995;DHT22;35277;49.890;8.222;2023-03-05T01:21:28;21.90;59.30
2995;DHT22;35277;49.890;8.222;2023-03-05T01:23:55;21.90;59.30
2995;DHT22;35277;49.890;8.222;2023-03-05T01:26:24;21.90;59.30
2995;DHT22;35277;49.890;8.222;2023-03-05T01:28:53;21.90;59.30
2995;DHT22;35277;49.890;8.222;2023-03-05T01:31:21;21.90;59.40
2995;DHT22;35277;49.890;8.222;2023-03-05T01:33:50;21.90;59.30
2995;DHT22;35277;49.890;8.222;2023-03-05T01:36:18;21.90;59.30
2995;DHT22;35277;49.890;8.222;2023-03-05T01:38:47;21.90;59.40
2995;DHT22;35277;49.890;8.222;2023-03-05T01:41:16;21.90;59.30
2995;DHT22;35277;49.890;8.222;2023-03-05T01:43:45;21.90;59.30
2995;DHT22;35277;49.890;8.222;2023-03-05T01:46:36;21.90;59.40
2995;DHT22;35277;49.890;8.222;2023-03-05T01:49:18;21.90;59.40
2995;DHT22;35277;49.890;8.222;2023-03-05T01:51:55;21.90;59.40
2995;DHT22;35277;49.890;8.222;2023-03-05T01:54:27;21.90;59.40
2995;DHT22;35277;49.890;8.222;2023-03-05T01:56:58;21.90;59.40
2995;DHT22;35277;49.890;8.222;2023-03-05T01:59:29;21.90;59.40
2995;DHT22;35277;49.890;8.222;2023-03-05T02:01:59;21.90;59.40
2995;DHT22;35277;49.890;8.222;2023-03-05T02:04:31;21.90;59.40
2995;DHT22;35277;49.890;8.222;2023-03-05T02:07:00;21.90;59.50
2995;DHT22;35277;49.890;8.222;2023-03-05T02:09:28;21.90;59.50
2995;DHT22;35277;49.890;8.222;2023-03-05T02:11:56;21.90;59.50
2995;DHT22;35277;49.890;8.222;2023-03-05T02:14:24;21.90;59.50
2995;DHT22;35277;49.890;8.222;2023-03-05T02:16:53;21.90;60.10
2995;DHT22;35277;49.890;8.222;2023-03-05T02:19:22;21.90;59.50
2995;DHT22;35277;49.890;8.222;2023-03-05T02:21:51;21.90;59.50
2995;DHT22;35277;49.890;8.222;2023-03-05T02:24:33;21.90;59.50
2995;DHT22;35277;49.890;8.222;2023-03-05T02:27:02;21.90;59.50
2995;DHT22;35277;49.890;8.222;2023-03-05T02:29:31;21.90;59.50
2995;DHT22;35277;49.890;8.222;2023-03-05T02:32:00;21.90;59.50
2995;DHT22;35277;49.890;8.222;2023-03-05T02:34:28;21.90;59.50
2995;DHT22;35277;49.890;8.222;2023-03-05T02:36:58;21.90;59.50
2995;DHT22;35277;49.890;8.222;2023-03-05T02:39:25;21.90;59.50
2995;DHT22;35277;49.890;8.222;2023-03-05T02:41:53;21.90;59.50
2995;DHT22;35277;49.890;8.222;2023-03-05T02:44:21;21.90;59.50
2995;DHT22;35277;49.890;8.222;2023-03-05T02:46:49;21.90;59.60
2995;DHT22;35277;49.890;8.222;2023-03-05T02:49:17;21.90;59.50
2995;DHT22;35277;49.890;8.222;2023-03-05T02:51:45;21.90;59.60
2995;DHT22;35277;49.890;8.222;2023-03-05T02:54:14;21.90;59.60
2995;DHT22;35277;49.890;8.222;2023-03-05T02:56:42;21.90;59.60
2995;DHT22;35277;49.890;8.222;2023-03-05T02:59:10;21.90;59.60
2995;DHT22;35277;49.890;8.222;2023-03-05T03:01:38;21.90;59.60
2995;DHT22;35277;49.890;8.222;2023-03-05T03:04:06;21.90;59.60
2995;DHT22;35277;49.890;8.222;2023-03-05T03:06:33;21.90;59.60
2995;DHT22;35277;49.890;8.222;2023-03-05T03:09:01;21.90;59.60
2995;DHT22;35277;49.890;8.222;2023-03-05T03:11:30;21.90;59.60
2995;DHT22;35277;49.890;8.222;2023-03-05T03:13:58;21.90;59.60
2995;DHT22;35277;49.890;8.222;2023-03-05T03:16:26;21.90;59.70
2995;DHT22;35277;49.890;8.222;2023-03-05T03:18:54;21.90;59.70
2995;DHT22;35277;49.890;8.222;2023-03-05T03:21:24;21.90;59.70
2995;DHT22;35277;49.890;8.222;2023-03-05T03:23:52;21.90;59.70
2995;DHT22;35277;49.890;8.222;2023-03-05T03:26:20;21.90;59.70
2995;DHT22;35277;49.890;8.222;2023-03-05T03:28:49;21.90;59.70
2995;DHT22;35277;49.890;8.222;2023-03-05T03:31:17;21.90;59.70
2995;DHT22;35277;49.890;8.222;2023-03-05T03:33:45;21.90;59.70
2995;DHT22;35277;49.890;8.222;2023-03-05T03:36:12;21.90;59.70
2995;DHT22;35277;49.890;8.222;2023-03-05T03:38:40;21.90;59.70
2995;DHT22;35277;49.890;8.222;2023-03-05T03:41:08;21.90;59.70
2995;DHT22;35277;49.890;8.222;2023-03-05T03:43:36;21.90;59.70
2995;DHT22;35277;49.890;8.222;2023-03-05T03:46:06;21.90;59.70
2995;DHT22;35277;49.890;8.222;2023-03-05T03:48:34;21.90;59.70
2995;DHT22;35277;49.890;8.222;2023-03-05T03:51:06;21.90;59.70
2995;DHT22;35277;49.890;8.222;2023-03-05T03:53:34;21.90;59.70
2995;DHT22;35277;49.890;8.222;2023-03-05T03:56:02;21.90;59.70
2995;DHT22;35277;49.890;8.222;2023-03-05T03:58:30;21.90;60.50
2995;DHT22;35277;49.890;8.222;2023-03-05T04:00:59;21.90;59.70
2995;DHT22;35277;49.890;8.222;2023-03-05T04:03:28;21.90;59.70
2995;DHT22;35277;49.890;8.222;2023-03-05T04:05:56;21.90;59.70
2995;DHT22;35277;49.890;8.222;2023-03-05T04:08:23;21.90;59.70
2995;DHT22;35277;49.890;8.222;2023-03-05T04:10:51;21.90;59.80
2995;DHT22;35277;49.890;8.222;2023-03-05T04:13:19;21.90;59.80
2995;DHT22;35277;49.890;8.222;2023-03-05T04:15:46;21.90;59.80
2995;DHT22;35277;49.890;8.222;2023-03-05T04:18:15;21.90;59.80
2995;DHT22;35277;49.890;8.222;2023-03-05T04:20:44;21.90;59.80
2995;DHT22;35277;49.890;8.222;2023-03-05T04:23:12;21.90;59.80
2995;DHT22;35277;49.890;8.222;2023-03-05T04:25:40;21.90;59.80
2995;DHT22;35277;49.890;8.222;2023-03-05T04:28:10;21.90;59.80
2995;DHT22;35277;49.890;8.222;2023-03-05T04:30:38;21.90;59.80
2995;DHT22;35277;49.890;8.222;2023-03-05T04:33:06;21.90;59.80
2995;DHT22;35277;49.890;8.222;2023-03-05T04:35:34;21.90;59.80
2995;DHT22;35277;49.890;8.222;2023-03-05T04:38:03;21.90;59.80
2995;DHT22;35277;49.890;8.222;2023-03-05T04:40:30;21.90;59.80
2995;DHT22;35277;49.890;8.222;2023-03-05T04:42:58;21.90;59.80
2995;DHT22;35277;49.890;8.222;2023-03-05T04:45:26;21.90;60.50
2995;DHT22;35277;49.890;8.222;2023-03-05T04:47:54;21.90;59.80
2995;DHT22;35277;49.890;8.222;2023-03-05T04:50:22;21.90;59.80
2995;DHT22;35277;49.890;8.222;2023-03-05T04:52:49;21.90;59.80
2995;DHT22;35277;49.890;8.222;2023-03-05T04:55:18;21.90;59.80
2995;DHT22;35277;49.890;8.222;2023-03-05T04:57:46;21.90;59.80
2995;DHT22;35277;49.890;8.222;2023-03-05T05:00:15;21.90;59.80
2995;DHT22;35277;49.890;8.222;2023-03-05T05:02:45;21.90;59.80
2995;DHT22;35277;49.890;8.222;2023-03-05T05:05:15;21.90;59.80
2995;DHT22;35277;49.890;8.222;2023-03-05T05:07:43;21.90;59.80
2995;DHT22;35277;49.890;8.222;2023-03-05T05:10:12;21.80;59.70
2995;DHT22;35277;49.890;8.222;2023-03-05T05:12:42;21.90;59.80
2995;DHT22;35277;49.890;8.222;2023-03-05T05:15:11;21.80;59.80
2995;DHT22;35277;49.890;8.222;2023-03-05T05:17:39;21.80;59.70
2995;DHT22;35277;49.890;8.222;2023-03-05T05:20:08;21.80;59.70
2995;DHT22;35277;49.890;8.222;2023-03-05T05:22:37;21.80;59.70
2995;DHT22;35277;49.890;8.222;2023-03-05T05:25:05;21.80;60.40
2995;DHT22;35277;49.890;8.222;2023-03-05T05:27:33;21.80;59.60
2995;DHT22;35277;49.890;8.222;2023-03-05T05:30:03;21.80;59.60
2995;DHT22;35277;49.890;8.222;2023-03-05T05:32:31;21.80;59.60
2995;DHT22;35277;49.890;8.222;2023-03-05T05:34:59;21.80;59.60
2995;DHT22;35277;49.890;8.222;2023-03-05T05:37:26;21.90;59.60
2995;DHT22;35277;49.890;8.222;2023-03-05T05:39:55;21.90;59.60
2995;DHT22;35277;49.890;8.222;2023-03-05T05:42:24;21.80;59.50
2995;DHT22;35277;49.890;8.222;2023-03-05T05:44:51;21.90;59.50
2995;DHT22;35277;49.890;8.222;2023-03-05T05:47:22;21.80;59.40
2995;DHT22;35277;49.890;8.222;2023-03-05T05:49:50;21.80;59.40
2995;DHT22;35277;49.890;8.222;2023-03-05T05:52:18;21.90;59.50
2995;DHT22;35277;49.890;8.222;2023-03-05T05:54:46;21.80;59.40
2995;DHT22;35277;49.890;8.222;2023-03-05T05:57:14;21.80;59.40
2995;DHT22;35277;49.890;8.222;2023-03-05T05:59:41;21.90;59.50
2995;DHT22;35277;49.890;8.222;2023-03-05T06:02:09;21.80;59.40
2995;DHT22;35277;49.890;8.222;2023-03-05T06:04:38;21.80;59.40
2995;DHT22;35277;49.890;8.222;2023-03-05T06:07:07;21.80;59.40
2995;DHT22;35277;49.890;8.222;2023-03-05T06:09:35;21.80;59.40
2995;DHT22;35277;49.890;8.222;2023-03-05T06:12:03;21.80;59.40
2995;DHT22;35277;49.890;8.222;2023-03-05T06:14:31;21.90;59.50
2995;DHT22;35277;49.890;8.222;2023-03-05T06:16:59;21.80;59.40
2995;DHT22;35277;49.890;8.222;2023-03-05T06:19:27;21.90;59.50
2995;DHT22;35277;49.890;8.222;2023-03-05T06:21:56;21.80;59.40
2995;DHT22;35277;49.890;8.222;2023-03-05T06:24:24;21.80;59.40
2995;DHT22;35277;49.890;8.222;2023-03-05T06:26:52;21.80;59.40
2995;DHT22;35277;49.890;8.222;2023-03-05T06:29:20;21.80;59.40
2995;DHT22;35277;49.890;8.222;2023-03-05T06:31:47;21.80;59.40
2995;DHT22;35277;49.890;8.222;2023-03-05T06:34:15;21.80;59.50
2995;DHT22;35277;49.890;8.222;2023-03-05T06:36:43;21.80;59.50
2995;DHT22;35277;49.890;8.222;2023-03-05T06:39:12;21.80;60.00
2995;DHT22;35277;49.890;8.222;2023-03-05T06:41:40;21.80;60.60
2995;DHT22;35277;49.890;8.222;2023-03-05T06:44:08;21.80;61.10
2995;DHT22;35277;49.890;8.222;2023-03-05T06:46:37;21.80;61.20
2995;DHT22;35277;49.890;8.222;2023-03-05T06:49:05;21.90;61.60
2995;DHT22;35277;49.890;8.222;2023-03-05T06:51:36;21.90;61.70
2995;DHT22;35277;49.890;8.222;2023-03-05T06:54:06;21.80;61.50
2995;DHT22;35277;49.890;8.222;2023-03-05T06:56:37;21.90;61.20
2995;DHT22;35277;49.890;8.222;2023-03-05T06:59:05;21.80;60.90
2995;DHT22;35277;49.890;8.222;2023-03-05T07:01:33;21.90;60.80
2995;DHT22;35277;49.890;8.222;2023-03-05T07:04:01;21.90;60.80
2995;DHT22;35277;49.890;8.222;2023-03-05T07:06:32;21.90;60.60
2995;DHT22;35277;49.890;8.222;2023-03-05T07:09:00;21.90;60.60
2995;DHT22;35277;49.890;8.222;2023-03-05T07:11:28;21.90;60.60
2995;DHT22;35277;49.890;8.222;2023-03-05T07:13:58;22.00;60.70
2995;DHT22;35277;49.890;8.222;2023-03-05T07:16:27;22.00;60.70
2995;DHT22;35277;49.890;8.222;2023-03-05T07:18:57;22.00;60.60
2995;DHT22;35277;49.890;8.222;2023-03-05T07:21:29;22.00;60.50
2995;DHT22;35277;49.890;8.222;2023-03-05T07:23:59;22.00;60.50
2995;DHT22;35277;49.890;8.222;2023-03-05T07:26:27;22.00;60.50
2995;DHT22;35277;49.890;8.222;2023-03-05T07:28:57;22.00;60.50
2995;DHT22;35277;49.890;8.222;2023-03-05T07:31:25;22.00;60.60
2995;DHT22;35277;49.890;8.222;2023-03-05T07:33:57;22.00;60.60
2995;DHT22;35277;49.890;8.222;2023-03-05T07:36:25;22.00;60.80
2995;DHT22;35277;49.890;8.222;2023-03-05T07:38:53;22.00;61.20
2995;DHT22;35277;49.890;8.222;2023-03-05T07:41:21;22.00;61.60
2995;DHT22;35277;49.890;8.222;2023-03-05T07:43:51;22.00;61.90
2995;DHT22;35277;49.890;8.222;2023-03-05T07:46:22;22.00;62.10
2995;DHT22;35277;49.890;8.222;2023-03-05T07:48:50;22.00;62.30
2995;DHT22;35277;49.890;8.222;2023-03-05T07:51:20;22.00;62.50
2995;DHT22;35277;49.890;8.222;2023-03-05T07:53:50;22.00;62.60
2995;DHT22;35277;49.890;8.222;2023-03-05T07:56:21;22.00;62.70
2995;DHT22;35277;49.890;8.222;2023-03-05T07:58:49;22.00;62.70
2995;DHT22;35277;49.890;8.222;2023-03-05T08:01:17;22.10;62.70
2995;DHT22;35277;49.890;8.222;2023-03-05T08:03:46;22.00;62.60
2995;DHT22;35277;49.890;8.222;2023-03-05T08:06:14;22.00;62.60
2995;DHT22;35277;49.890;8.222;2023-03-05T08:08:42;22.10;62.70
2995;DHT22;35277;49.890;8.222;2023-03-05T08:11:11;22.00;62.50
2995;DHT22;35277;49.890;8.222;2023-03-05T08:13:40;22.00;62.50
2995;DHT22;35277;49.890;8.222;2023-03-05T08:16:10;22.00;62.40
2995;DHT22;35277;49.890;8.222;2023-03-05T08:18:38;22.00;62.40
2995;DHT22;35277;49.890;8.222;2023-03-05T08:21:14;22.00;62.40
2995;DHT22;35277;49.890;8.222;2023-03-05T08:23:42;22.00;62.40
2995;DHT22;35277;49.890;8.222;2023-03-05T08:26:11;22.00;62.30
2995;DHT22;35277;49.890;8.222;2023-03-05T08:28:39;22.00;62.20
2995;DHT22;35277;49.890;8.222;2023-03-05T08:31:08;22.00;62.20
2995;DHT22;35277;49.890;8.222;2023-03-05T08:33:36;22.00;62.00
2995;DHT22;35277;49.890;8.222;2023-03-05T08:36:07;22.00;62.00
2995;DHT22;35277;49.890;8.222;2023-03-05T08:38:35;22.00;61.90
2995;DHT22;35277;49.890;8.222;2023-03-05T08:41:03;22.00;61.90
2995;DHT22;35277;49.890;8.222;2023-03-05T08:43:31;22.00;61.80
2995;DHT22;35277;49.890;8.222;2023-03-05T08:45:59;22.00;61.80
2995;DHT22;35277;49.890;8.222;2023-03-05T08:48:28;22.00;61.70
2995;DHT22;35277;49.890;8.222;2023-03-05T08:50:57;22.00;61.70
2995;DHT22;35277;49.890;8.222;2023-03-05T08:53:26;22.00;61.60
2995;DHT22;35277;49.890;8.222;2023-03-05T08:55:55;22.00;61.60
2995;DHT22;35277;49.890;8.222;2023-03-05T08:58:23;22.00;62.30
2995;DHT22;35277;49.890;8.222;2023-03-05T09:00:51;22.00;61.40
2995;DHT22;35277;49.890;8.222;2023-03-05T09:03:19;22.00;61.40
2995;DHT22;35277;49.890;8.222;2023-03-05T09:05:47;22.00;61.30
2995;DHT22;35277;49.890;8.222;2023-03-05T09:08:15;22.00;61.20
2995;DHT22;35277;49.890;8.222;2023-03-05T09:10:44;22.00;61.20
2995;DHT22;35277;49.890;8.222;2023-03-05T09:13:12;22.00;61.10
2995;DHT22;35277;49.890;8.222;2023-03-05T09:15:40;22.00;61.10
2995;DHT22;35277;49.890;8.222;2023-03-05T09:18:08;22.00;61.10
2995;DHT22;35277;49.890;8.222;2023-03-05T09:20:36;22.00;61.10
2995;DHT22;35277;49.890;8.222;2023-03-05T09:23:04;22.10;61.20
2995;DHT22;35277;49.890;8.222;2023-03-05T09:25:31;22.10;61.20
2995;DHT22;35277;49.890;8.222;2023-03-05T09:28:01;22.10;61.20
2995;DHT22;35277;49.890;8.222;2023-03-05T09:30:28;22.10;61.50
2995;DHT22;35277;49.890;8.222;2023-03-05T09:32:56;22.10;61.20
2995;DHT22;35277;49.890;8.222;2023-03-05T09:35:24;22.10;61.20
2995;DHT22;35277;49.890;8.222;2023-03-05T09:37:51;22.10;61.10
2995;DHT22;35277;49.890;8.222;2023-03-05T09:40:20;22.10;61.20
2995;DHT22;35277;49.890;8.222;2023-03-05T09:43:02;22.10;61.10
2995;DHT22;35277;49.890;8.222;2023-03-05T09:45:36;22.10;61.20
2995;DHT22;35277;49.890;8.222;2023-03-05T09:48:11;22.10;61.20
2995;DHT22;35277;49.890;8.222;2023-03-05T09:50:43;22.10;61.10
2995;DHT22;35277;49.890;8.222;2023-03-05T09:53:17;22.10;61.10
2995;DHT22;35277;49.890;8.222;2023-03-05T09:55:50;22.10;61.10
2995;DHT22;35277;49.890;8.222;2023-03-05T09:58:24;22.10;61.00
2995;DHT22;35277;49.890;8.222;2023-03-05T10:00:59;22.10;61.00
2995;DHT22;35277;49.890;8.222;2023-03-05T10:03:42;22.10;61.00
2995;DHT22;35277;49.890;8.222;2023-03-05T10:06:16;22.10;60.90
2995;DHT22;35277;49.890;8.222;2023-03-05T10:08:52;22.10;61.30
2995;DHT22;35277;49.890;8.222;2023-03-05T10:11:32;22.10;60.80
2995;DHT22;35277;49.890;8.222;2023-03-05T10:14:02;22.10;60.80
2995;DHT22;35277;49.890;8.222;2023-03-05T10:19:39;22.10;60.80
2995;DHT22;35277;49.890;8.222;2023-03-05T10:22:15;22.10;60.80
2995;DHT22;35277;49.890;8.222;2023-03-05T10:24:55;22.10;60.70
2995;DHT22;35277;49.890;8.222;2023-03-05T10:27:36;22.10;60.70
2995;DHT22;35277;49.890;8.222;2023-03-05T10:30:25;22.10;60.70
2995;DHT22;35277;49.890;8.222;2023-03-05T10:33:09;22.00;60.60
2995;DHT22;35277;49.890;8.222;2023-03-05T10:36:06;22.00;60.50
2995;DHT22;35277;49.890;8.222;2023-03-05T10:38:52;22.00;60.50
2995;DHT22;35277;49.890;8.222;2023-03-05T10:41:28;22.00;60.50
2995;DHT22;35277;49.890;8.222;2023-03-05T10:44:05;22.00;60.40
2995;DHT22;35277;49.890;8.222;2023-03-05T10:46:37;22.00;60.40
2995;DHT22;35277;49.890;8.222;2023-03-05T10:49:14;22.00;60.30
2995;DHT22;35277;49.890;8.222;2023-03-05T10:51:49;22.00;60.30
2995;DHT22;35277;49.890;8.222;2023-03-05T10:54:22;22.00;60.30
2995;DHT22;35277;49.890;8.222;2023-03-05T10:57:02;22.00;60.20
2995;DHT22;35277;49.890;8.222;2023-03-05T10:59:31;22.00;60.20
2995;DHT22;35277;49.890;8.222;2023-03-05T11:02:06;22.00;60.20
2995;DHT22;35277;49.890;8.222;2023-03-05T11:04:37;22.00;60.10
2995;DHT22;35277;49.890;8.222;2023-03-05T11:07:07;22.00;60.10
2995;DHT22;35277;49.890;8.222;2023-03-05T11:09:35;22.00;60.10
2995;DHT22;35277;49.890;8.222;2023-03-05T11:12:14;22.00;60.00
2995;DHT22;35277;49.890;8.222;2023-03-05T11:14:44;22.00;60.00
2995;DHT22;35277;49.890;8.222;2023-03-05T11:17:27;22.00;60.00
2995;DHT22;35277;49.890;8.222;2023-03-05T11:19:55;22.00;60.00
2995;DHT22;35277;49.890;8.222;2023-03-05T11:22:24;22.00;60.00
2995;DHT22;35277;49.890;8.222;2023-03-05T11:25:10;22.00;60.00
2995;DHT22;35277;49.890;8.222;2023-03-05T11:27:45;22.00;60.00
2995;DHT22;35277;49.890;8.222;2023-03-05T11:30:19;22.00;60.10
2995;DHT22;35277;49.890;8.222;2023-03-05T11:32:49;22.00;60.10
2995;DHT22;35277;49.890;8.222;2023-03-05T11:35:30;22.00;60.20
2995;DHT22;35277;49.890;8.222;2023-03-05T11:37:59;22.00;60.20
2995;DHT22;35277;49.890;8.222;2023-03-05T11:40:29;22.00;60.20
2995;DHT22;35277;49.890;8.222;2023-03-05T11:42:58;22.00;60.20
2995;DHT22;35277;49.890;8.222;2023-03-05T11:45:30;22.00;60.20
2995;DHT22;35277;49.890;8.222;2023-03-05T11:48:05;22.00;60.20
2995;DHT22;35277;49.890;8.222;2023-03-05T11:50:37;22.00;60.20
2995;DHT22;35277;49.890;8.222;2023-03-05T11:53:12;22.00;60.20
2995;DHT22;35277;49.890;8.222;2023-03-05T11:55:43;22.00;60.30
2995;DHT22;35277;49.890;8.222;2023-03-05T11:58:30;22.00;60.50
2995;DHT22;35277;49.890;8.222;2023-03-05T12:00:59;22.10;61.00
2995;DHT22;35277;49.890;8.222;2023-03-05T12:03:31;22.10;61.30
2995;DHT22;35277;49.890;8.222;2023-03-05T12:06:06;22.10;62.00
2995;DHT22;35277;49.890;8.222;2023-03-05T12:08:39;22.10;62.50
2995;DHT22;35277;49.890;8.222;2023-03-05T12:11:19;22.20;62.90
2995;DHT22;35277;49.890;8.222;2023-03-05T12:13:49;22.20;63.40
2995;DHT22;35277;49.890;8.222;2023-03-05T12:16:30;22.30;63.80
2995;DHT22;35277;49.890;8.222;2023-03-05T12:19:30;22.30;64.40
2995;DHT22;35277;49.890;8.222;2023-03-05T12:22:02;22.40;64.30
2995;DHT22;35277;49.890;8.222;2023-03-05T12:24:36;22.50;64.10
2995;DHT22;35277;49.890;8.222;2023-03-05T12:27:12;22.50;64.00
2995;DHT22;35277;49.890;8.222;2023-03-05T12:29:46;22.60;63.90
2995;DHT22;35277;49.890;8.222;2023-03-05T12:35:32;22.60;63.60
2995;DHT22;35277;49.890;8.222;2023-03-05T12:38:29;22.60;63.50
2995;DHT22;35277;49.890;8.222;2023-03-05T12:44:20;22.60;63.40
2995;DHT22;35277;49.890;8.222;2023-03-05T12:47:16;22.50;63.20
2995;DHT22;35277;49.890;8.222;2023-03-05T12:49:49;22.50;63.10
2995;DHT22;35277;49.890;8.222;2023-03-05T12:52:24;22.40;63.70
2995;DHT22;35277;49.890;8.222;2023-03-05T12:55:00;22.40;62.80
2995;DHT22;35277;49.890;8.222;2023-03-05T12:57:30;22.40;62.60
2995;DHT22;35277;49.890;8.222;2023-03-05T13:00:01;22.40;62.40
2995;DHT22;35277;49.890;8.222;2023-03-05T13:02:34;22.30;62.20
2995;DHT22;35277;49.890;8.222;2023-03-05T13:05:11;22.30;62.00
2995;DHT22;35277;49.890;8.222;2023-03-05T13:07:44;22.30;61.80
2995;DHT22;35277;49.890;8.222;2023-03-05T13:10:21;22.30;61.70
2995;DHT22;35277;49.890;8.222;2023-03-05T13:12:50;22.20;61.60
2995;DHT22;35277;49.890;8.222;2023-03-05T13:15:21;22.20;61.50
2995;DHT22;35277;49.890;8.222;2023-03-05T13:17:54;22.20;61.40
2995;DHT22;35277;49.890;8.222;2023-03-05T13:20:29;22.20;62.30
2995;DHT22;35277;49.890;8.222;2023-03-05T13:23:15;22.20;61.30
2995;DHT22;35277;49.890;8.222;2023-03-05T13:25:44;22.20;61.30
2995;DHT22;35277;49.890;8.222;2023-03-05T13:28:22;22.20;61.30
2995;DHT22;35277;49.890;8.222;2023-03-05T13:30:51;22.20;61.30
2995;DHT22;35277;49.890;8.222;2023-03-05T13:33:23;22.10;61.10
2995;DHT22;35277;49.890;8.222;2023-03-05T13:35:51;22.10;61.00
2995;DHT22;35277;49.890;8.222;2023-03-05T13:38:28;22.10;61.00
2995;DHT22;35277;49.890;8.222;2023-03-05T13:41:03;22.10;61.00
2995;DHT22;35277;49.890;8.222;2023-03-05T13:43:31;22.10;61.00
2995;DHT22;35277;49.890;8.222;2023-03-05T13:45:59;22.10;60.90
2995;DHT22;35277;49.890;8.222;2023-03-05T13:48:27;22.10;60.90
2995;DHT22;35277;49.890;8.222;2023-03-05T13:50:56;22.10;60.80
2995;DHT22;35277;49.890;8.222;2023-03-05T13:53:27;22.10;60.80
2995;DHT22;35277;49.890;8.222;2023-03-05T13:55:57;22.10;60.70
2995;DHT22;35277;49.890;8.222;2023-03-05T13:58:43;22.10;60.70
2995;DHT22;35277;49.890;8.222;2023-03-05T14:01:21;22.10;60.60
2995;DHT22;35277;49.890;8.222;2023-03-05T14:03:51;22.00;60.50
2995;DHT22;35277;49.890;8.222;2023-03-05T14:06:20;22.00;60.50
2995;DHT22;35277;49.890;8.222;2023-03-05T14:08:51;22.00;60.40
2995;DHT22;35277;49.890;8.222;2023-03-05T14:11:19;22.00;60.30
2995;DHT22;35277;49.890;8.222;2023-03-05T14:13:57;22.00;60.30
2995;DHT22;35277;49.890;8.222;2023-03-05T14:16:27;22.00;60.30
2995;DHT22;35277;49.890;8.222;2023-03-05T14:19:00;22.00;60.20
2995;DHT22;35277;49.890;8.222;2023-03-05T14:21:42;22.00;60.20
2995;DHT22;35277;49.890;8.222;2023-03-05T14:24:17;22.00;60.20
2995;DHT22;35277;49.890;8.222;2023-03-05T14:26:50;22.00;60.20
2995;DHT22;35277;49.890;8.222;2023-03-05T14:29:21;22.00;60.10
2995;DHT22;35277;49.890;8.222;2023-03-05T14:31:52;22.00;60.00
2995;DHT22;35277;49.890;8.222;2023-03-05T14:34:24;21.90;59.90
2995;DHT22;35277;49.890;8.222;2023-03-05T14:36:55;22.00;60.00
2995;DHT22;35277;49.890;8.222;2023-03-05T14:39:42;21.90;59.90
2995;DHT22;35277;49.890;8.222;2023-03-05T14:42:26;21.90;59.80
2995;DHT22;35277;49.890;8.222;2023-03-05T14:44:55;21.90;59.80
2995;DHT22;35277;49.890;8.222;2023-03-05T14:47:24;21.90;59.80
2995;DHT22;35277;49.890;8.222;2023-03-05T14:49:52;21.90;59.70
2995;DHT22;35277;49.890;8.222;2023-03-05T14:52:21;21.90;59.70
2995;DHT22;35277;49.890;8.222;2023-03-05T14:54:51;21.90;59.70
2995;DHT22;35277;49.890;8.222;2023-03-05T14:57:22;21.90;59.70
2995;DHT22;35277;49.890;8.222;2023-03-05T14:59:51;21.90;59.70
2995;DHT22;35277;49.890;8.222;2023-03-05T15:02:22;21.90;59.70
2995;DHT22;35277;49.890;8.222;2023-03-05T15:04:51;21.90;59.70
2995;DHT22;35277;49.890;8.222;2023-03-05T15:07:21;21.90;59.70
2995;DHT22;35277;49.890;8.222;2023-03-05T15:09:51;21.90;59.70
2995;DHT22;35277;49.890;8.222;2023-03-05T15:12:19;21.90;59.70
2995;DHT22;35277;49.890;8.222;2023-03-05T15:14:50;21.90;59.70
2995;DHT22;35277;49.890;8.222;2023-03-05T15:17:20;21.90;59.70
2995;DHT22;35277;49.890;8.222;2023-03-05T15:19:49;21.90;59.70
2995;DHT22;35277;49.890;8.222;2023-03-05T15:22:16;21.90;59.70
2995;DHT22;35277;49.890;8.222;2023-03-05T15:24:44;21.90;59.70
2995;DHT22;35277;49.890;8.222;2023-03-05T15:27:13;21.90;59.70
2995;DHT22;35277;49.890;8.222;2023-03-05T15:29:41;21.90;59.70
2995;DHT22;35277;49.890;8.222;2023-03-05T15:32:09;21.90;59.60
2995;DHT22;35277;49.890;8.222;2023-03-05T15:34:37;21.80;59.60
2995;DHT22;35277;49.890;8.222;2023-03-05T15:37:05;21.80;59.60
2995;DHT22;35277;49.890;8.222;2023-03-05T15:39:33;21.80;59.60
2995;DHT22;35277;49.890;8.222;2023-03-05T15:42:00;21.80;59.50
2995;DHT22;35277;49.890;8.222;2023-03-05T15:44:32;21.80;59.50
2995;DHT22;35277;49.890;8.222;2023-03-05T15:47:00;21.80;59.50
2995;DHT22;35277;49.890;8.222;2023-03-05T15:49:28;21.80;59.50
2995;DHT22;35277;49.890;8.222;2023-03-05T15:51:56;21.80;59.50
2995;DHT22;35277;49.890;8.222;2023-03-05T15:54:23;21.80;59.50
2995;DHT22;35277;49.890;8.222;2023-03-05T15:56:51;21.80;59.50
2995;DHT22;35277;49.890;8.222;2023-03-05T15:59:19;21.80;59.40
2995;DHT22;35277;49.890;8.222;2023-03-05T16:01:49;21.80;59.40
2995;DHT22;35277;49.890;8.222;2023-03-05T16:04:17;21.80;59.40
2995;DHT22;35277;49.890;8.222;2023-03-05T16:06:47;21.80;59.40
2995;DHT22;35277;49.890;8.222;2023-03-05T16:09:16;21.80;59.30
2995;DHT22;35277;49.890;8.222;2023-03-05T16:11:45;21.80;59.30
2995;DHT22;35277;49.890;8.222;2023-03-05T16:14:19;21.80;59.30
2995;DHT22;35277;49.890;8.222;2023-03-05T16:16:49;21.80;59.30